createdAt,value
2024-02-14T00:01:45.698Z,6.20
2024-02-14T00:04:15.305Z,6.50
2024-02-14T00:06:44.544Z,6.50
2024-02-14T00:09:12.502Z,6.70
2024-02-14T00:11:40.391Z,6.60
2024-02-14T00:14:08.914Z,6.50
2024-02-14T00:16:37.278Z,6.60
2024-02-14T00:19:05.189Z,6.80
2024-02-14T00:21:35.104Z,6.10
2024-02-14T00:24:03.099Z,6.20
2024-02-14T00:26:31.017Z,7.00
2024-02-14T00:28:58.790Z,6.80
2024-02-14T00:31:26.568Z,6.70
2024-02-14T00:33:54.503Z,6.90
2024-02-14T00:36:22.371Z,6.90
2024-02-14T00:38:52.273Z,6.90
2024-02-14T00:41:20.069Z,6.70
2024-02-14T00:43:47.921Z,6.90
2024-02-14T00:46:18.497Z,6.80
2024-02-14T00:48:46.719Z,6.80
2024-02-14T00:51:14.595Z,6.80
2024-02-14T00:53:42.417Z,6.70
2024-02-14T00:56:11.862Z,6.80
2024-02-14T00:58:40.235Z,7.00
2024-02-14T01:01:08.038Z,7.00
2024-02-14T01:03:36.020Z,6.80
2024-02-14T01:06:04.860Z,7.00
2024-02-14T01:08:33.232Z,7.20
2024-02-14T01:11:01.542Z,7.30
2024-02-14T01:13:30.896Z,7.10
2024-02-14T01:15:58.688Z,7.50
2024-02-14T01:18:26.845Z,7.30
2024-02-14T01:20:55.308Z,7.50
2024-02-14T01:23:23.138Z,7.30
2024-02-14T01:25:51.310Z,7.60
2024-02-14T01:28:19.325Z,7.60
2024-02-14T01:30:48.487Z,7.60
2024-02-14T01:33:20.123Z,7.60
2024-02-14T01:35:47.988Z,7.50
2024-02-14T01:38:15.906Z,7.80
2024-02-14T01:40:45.433Z,7.90
2024-02-14T01:43:15.460Z,7.70
2024-02-14T01:45:43.294Z,7.80
2024-02-14T01:48:12.503Z,7.60
2024-02-14T01:50:41.905Z,7.80
2024-02-14T01:53:09.921Z,8.00
2024-02-14T01:55:37.937Z,7.90
2024-02-14T01:58:06.924Z,7.40
2024-02-14T02:00:35.474Z,7.90
2024-02-14T02:03:03.872Z,8.10
2024-02-14T02:05:34.718Z,7.90
2024-02-14T02:08:03.284Z,7.80
2024-02-14T02:10:31.120Z,8.00
2024-02-14T02:13:02.096Z,8.00
2024-02-14T02:15:30.657Z,8.10
2024-02-14T02:18:00.709Z,7.90
2024-02-14T02:20:29.032Z,8.10
2024-02-14T02:22:58.468Z,7.90
2024-02-14T02:25:27.550Z,7.90
2024-02-14T02:27:57.688Z,7.80
2024-02-14T02:30:26.309Z,8.00
2024-02-14T02:32:54.273Z,7.90
2024-02-14T02:35:22.260Z,7.90
2024-02-14T02:37:51.577Z,7.80
2024-02-14T02:40:22.789Z,7.80
2024-02-14T02:42:51.828Z,7.60
2024-02-14T02:45:19.750Z,7.70
2024-02-14T02:47:49.071Z,7.70
2024-02-14T02:50:17.218Z,7.70
2024-02-14T02:52:45.071Z,7.60
2024-02-14T02:55:12.973Z,7.70
2024-02-14T02:57:42.030Z,7.60
2024-02-14T03:00:10.897Z,7.80
2024-02-14T03:02:42.493Z,8.10
2024-02-14T03:05:11.489Z,7.80
2024-02-14T03:07:40.353Z,7.90
2024-02-14T03:10:08.904Z,7.80
2024-02-14T03:12:36.666Z,7.80
2024-02-14T03:15:11.127Z,7.80
2024-02-14T03:17:39.124Z,8.00
2024-02-14T03:20:16.488Z,7.90
2024-02-14T03:22:46.916Z,8.00
2024-02-14T03:25:15.978Z,8.40
2024-02-14T03:27:46.561Z,8.30
2024-02-14T03:30:17.441Z,8.20
2024-02-14T03:32:45.608Z,8.30
2024-02-14T03:35:14.430Z,8.30
2024-02-14T03:37:43.510Z,8.20
2024-02-14T03:40:12.573Z,8.40
2024-02-14T03:42:41.321Z,8.20
2024-02-14T03:45:10.246Z,8.20
2024-02-14T03:47:40.994Z,8.30
2024-02-14T03:50:09.904Z,8.30
2024-02-14T03:52:37.855Z,8.30
2024-02-14T03:55:07.934Z,8.20
2024-02-14T03:57:39.620Z,8.40
2024-02-14T04:00:11.951Z,8.20
2024-02-14T04:02:42.115Z,8.30
2024-02-14T04:05:10.818Z,8.40
2024-02-14T04:07:39.302Z,8.20
2024-02-14T04:10:08.550Z,8.30
2024-02-14T04:12:36.626Z,8.20
2024-02-14T04:15:04.680Z,8.20
2024-02-14T04:17:32.616Z,8.20
2024-02-14T04:20:01.900Z,8.10
2024-02-14T04:22:29.691Z,8.40
2024-02-14T04:24:57.541Z,8.30
2024-02-14T04:27:25.316Z,8.30
2024-02-14T04:29:53.237Z,8.20
2024-02-14T04:32:21.469Z,8.40
2024-02-14T04:34:50.498Z,8.30
2024-02-14T04:37:20.713Z,8.20
2024-02-14T04:39:48.676Z,8.30
2024-02-14T04:42:16.430Z,8.30
2024-02-14T04:44:44.870Z,8.20
2024-02-14T04:47:12.738Z,8.20
2024-02-14T04:49:40.621Z,8.30
2024-02-14T04:52:09.547Z,8.30
2024-02-14T04:54:38.719Z,8.30
2024-02-14T04:57:06.728Z,8.20
2024-02-14T04:59:34.651Z,8.30
2024-02-14T05:02:02.680Z,8.30
2024-02-14T05:04:30.726Z,8.20
2024-02-14T05:06:59.662Z,8.20
2024-02-14T05:09:27.856Z,8.30
2024-02-14T05:11:57.129Z,8.20
2024-02-14T05:14:25.402Z,8.40
2024-02-14T05:16:53.181Z,8.20
2024-02-14T05:19:23.157Z,8.20
2024-02-14T05:21:51.361Z,8.30
2024-02-14T05:24:19.775Z,8.20
2024-02-14T05:26:47.919Z,8.20
2024-02-14T05:29:19.743Z,8.10
2024-02-14T05:31:49.869Z,8.30
2024-02-14T05:34:18.245Z,8.30
2024-02-14T05:36:47.040Z,8.10
2024-02-14T05:39:16.828Z,8.10
2024-02-14T05:41:45.077Z,8.30
2024-02-14T05:44:12.933Z,8.40
2024-02-14T05:46:43.694Z,8.00
2024-02-14T05:49:11.803Z,8.20
2024-02-14T05:51:39.806Z,8.30
2024-02-14T05:54:07.811Z,8.50
2024-02-14T05:56:35.850Z,8.20
2024-02-14T05:59:03.769Z,8.20
2024-02-14T06:01:30.726Z,8.40
2024-02-14T06:03:59.855Z,8.60
2024-02-14T06:06:27.739Z,8.30
2024-02-14T06:08:56.064Z,8.30
2024-02-14T06:11:23.975Z,8.40
2024-02-14T06:13:51.800Z,8.40
2024-02-14T06:16:19.640Z,8.60
2024-02-14T06:18:47.702Z,8.00
2024-02-14T06:21:17.058Z,8.30
2024-02-14T06:23:47.974Z,8.50
2024-02-14T06:26:15.855Z,8.40
2024-02-14T06:28:43.652Z,8.30
2024-02-14T06:31:11.419Z,8.50
2024-02-14T06:33:39.698Z,8.60
2024-02-14T06:36:07.654Z,8.50
2024-02-14T06:38:36.913Z,8.60
2024-02-14T06:41:04.847Z,8.50
2024-02-14T06:43:32.696Z,8.40
2024-02-14T06:46:00.524Z,8.60
2024-02-14T06:48:28.532Z,8.40
2024-02-14T06:50:56.448Z,8.80
2024-02-14T06:53:24.736Z,8.50
2024-02-14T06:55:54.210Z,8.40
2024-02-14T06:58:22.022Z,8.20
2024-02-14T07:00:51.848Z,8.40
2024-02-14T07:03:19.716Z,7.90
2024-02-14T07:05:47.649Z,8.30
2024-02-14T07:08:16.624Z,8.40
2024-02-14T07:10:44.442Z,8.50
2024-02-14T07:13:14.730Z,8.60
2024-02-14T07:15:42.510Z,8.70
2024-02-14T07:18:11.694Z,8.60
2024-02-14T07:20:39.743Z,8.50
2024-02-14T07:23:07.654Z,8.40
2024-02-14T07:25:35.395Z,8.50
2024-02-14T07:28:03.175Z,8.60
2024-02-14T07:30:32.324Z,8.80
2024-02-14T07:33:00.252Z,8.30
2024-02-14T07:35:28.222Z,8.90
2024-02-14T07:37:56.068Z,8.70
2024-02-14T07:40:24.407Z,8.80
2024-02-14T07:42:52.228Z,8.90
2024-02-14T07:45:20.004Z,8.90
2024-02-14T07:47:51.047Z,8.80
2024-02-14T07:50:18.977Z,8.90
2024-02-14T07:52:47.580Z,9.10
2024-02-14T07:55:15.707Z,9.00
2024-02-14T07:57:44.179Z,9.10
2024-02-14T08:00:13.499Z,9.00
2024-02-14T08:02:41.463Z,9.20
2024-02-14T08:05:10.857Z,9.20
2024-02-14T08:07:38.625Z,9.00
2024-02-14T08:10:07.124Z,9.10
2024-02-14T08:12:34.909Z,9.00
2024-02-14T08:15:05.687Z,9.30
2024-02-14T08:17:34.571Z,9.20
2024-02-14T08:20:02.613Z,9.10
2024-02-14T08:22:31.952Z,9.30
2024-02-14T08:25:00.056Z,9.30
2024-02-14T08:27:28.729Z,9.60
2024-02-14T08:29:56.810Z,9.30
2024-02-14T08:32:27.016Z,9.50
2024-02-14T08:34:55.396Z,9.70
2024-02-14T08:37:23.237Z,9.50
2024-02-14T08:39:52.346Z,9.40
2024-02-14T08:42:20.117Z,9.60
2024-02-14T08:44:47.892Z,9.50
2024-02-14T08:47:15.680Z,9.40
2024-02-14T08:49:43.702Z,9.80
2024-02-14T08:52:11.627Z,9.80
2024-02-14T08:54:39.465Z,9.80
2024-02-14T08:57:08.776Z,9.70
2024-02-14T08:59:36.669Z,9.40
2024-02-14T09:02:05.463Z,9.60
2024-02-14T09:04:34.870Z,9.60
2024-02-14T09:07:05.318Z,9.90
2024-02-14T09:09:34.625Z,10.10
2024-02-14T09:12:04.092Z,9.90
2024-02-14T09:14:35.221Z,10.00
2024-02-14T09:17:04.383Z,9.80
2024-02-14T09:19:33.046Z,10.10
2024-02-14T09:22:01.709Z,9.90
2024-02-14T09:24:31.222Z,9.80
2024-02-14T09:27:00.340Z,10.00
2024-02-14T09:29:29.387Z,10.20
2024-02-14T09:31:59.587Z,10.50
2024-02-14T09:34:29.035Z,10.50
2024-02-14T09:36:58.061Z,10.70
2024-02-14T09:39:25.947Z,10.10
2024-02-14T09:41:56.476Z,10.20
2024-02-14T09:44:24.755Z,10.40
2024-02-14T09:46:52.614Z,10.50
2024-02-14T09:49:22.372Z,10.70
2024-02-14T09:51:51.018Z,10.50
2024-02-14T09:54:19.854Z,10.80
2024-02-14T09:56:54.826Z,10.40
2024-02-14T09:59:25.365Z,10.70
2024-02-14T10:01:53.586Z,10.30
2024-02-14T10:04:26.014Z,10.90
2024-02-14T10:06:54.442Z,10.80
2024-02-14T10:09:22.994Z,10.80
2024-02-14T10:11:51.192Z,10.70
2024-02-14T10:14:19.302Z,10.60
2024-02-14T10:16:47.870Z,10.60
2024-02-14T10:19:19.885Z,10.70
2024-02-14T10:22:00.204Z,10.70
2024-02-14T10:24:28.655Z,10.60
2024-02-14T10:26:58.983Z,10.50
2024-02-14T10:29:28.240Z,10.50
2024-02-14T10:31:56.055Z,10.70
2024-02-14T10:34:28.396Z,10.60
2024-02-14T10:37:01.019Z,10.80
2024-02-14T10:39:31.130Z,10.70
2024-02-14T10:42:01.053Z,10.70
2024-02-14T10:44:29.500Z,10.70
2024-02-14T10:47:01.274Z,10.70
2024-02-14T10:49:31.231Z,10.90
2024-02-14T10:52:04.021Z,11.10
2024-02-14T10:54:32.320Z,10.80
2024-02-14T10:57:04.324Z,11.20
2024-02-14T10:59:34.401Z,11.10
2024-02-14T11:02:04.196Z,11.20
2024-02-14T11:04:32.126Z,11.30
2024-02-14T11:07:03.863Z,11.30
2024-02-14T11:09:36.959Z,11.40
2024-02-14T11:12:10.491Z,11.60
2024-02-14T11:14:39.800Z,11.50
2024-02-14T11:17:11.591Z,11.20
2024-02-14T11:19:39.849Z,11.50
2024-02-14T11:22:20.052Z,11.60
2024-02-14T11:24:48.197Z,11.60
2024-02-14T11:27:29.813Z,11.80
2024-02-14T11:30:02.522Z,11.50
2024-02-14T11:32:30.585Z,11.70
2024-02-14T11:34:59.819Z,11.70
2024-02-14T11:37:32.688Z,11.90
2024-02-14T11:40:00.877Z,11.70
2024-02-14T11:42:29.039Z,11.90
2024-02-14T11:44:57.713Z,11.80
2024-02-14T11:47:26.931Z,11.60
2024-02-14T11:49:55.139Z,11.70
2024-02-14T11:52:23.194Z,11.80
2024-02-14T11:54:52.277Z,11.80
2024-02-14T11:57:20.805Z,11.60
2024-02-14T11:59:53.970Z,11.70
2024-02-14T12:02:22.441Z,11.70
2024-02-14T12:04:52.032Z,11.90
2024-02-14T12:07:21.034Z,11.80
2024-02-14T12:09:49.739Z,12.00
2024-02-14T12:12:18.901Z,11.80
2024-02-14T12:14:50.388Z,11.70
2024-02-14T12:17:19.664Z,11.90
2024-02-14T12:19:49.315Z,11.90
2024-02-14T12:22:20.360Z,11.80
2024-02-14T12:24:49.174Z,12.10
2024-02-14T12:27:21.081Z,12.00
2024-02-14T12:29:49.788Z,12.10
2024-02-14T12:32:19.438Z,12.10
2024-02-14T12:34:47.393Z,12.50
2024-02-14T12:37:16.242Z,12.70
2024-02-14T12:39:44.058Z,12.30
2024-02-14T12:42:11.941Z,12.80
2024-02-14T12:44:41.172Z,12.60
2024-02-14T12:47:09.326Z,12.70
2024-02-14T12:49:37.259Z,12.70
2024-02-14T12:52:05.630Z,12.30
2024-02-14T12:54:33.550Z,12.30
2024-02-14T12:57:02.191Z,12.50
2024-02-14T12:59:30.120Z,12.00
2024-02-14T13:01:59.318Z,12.20
2024-02-14T13:04:27.268Z,12.30
2024-02-14T13:06:55.306Z,12.20
2024-02-14T13:09:23.227Z,12.50
2024-02-14T13:11:51.234Z,12.50
2024-02-14T13:14:19.057Z,12.60
2024-02-14T13:16:46.996Z,12.60
2024-02-14T13:19:19.505Z,12.70
2024-02-14T13:21:49.263Z,12.80
2024-02-14T13:24:17.953Z,12.70
2024-02-14T13:26:46.052Z,12.90
2024-02-14T13:29:15.011Z,12.70
2024-02-14T13:31:43.009Z,13.00
2024-02-14T13:34:11.001Z,12.90
2024-02-14T13:36:42.287Z,13.20
2024-02-14T13:39:10.167Z,13.20
2024-02-14T13:41:38.902Z,13.30
2024-02-14T13:44:08.547Z,13.00
2024-02-14T13:46:36.540Z,13.10
2024-02-14T13:49:04.405Z,13.00
2024-02-14T13:51:33.604Z,13.10
2024-02-14T13:54:02.834Z,12.70
2024-02-14T13:56:30.646Z,12.90
2024-02-14T13:58:58.536Z,12.70
2024-02-14T14:01:27.585Z,12.70
2024-02-14T14:03:56.800Z,12.70
2024-02-14T14:06:25.787Z,12.80
2024-02-14T14:08:53.804Z,12.60
2024-02-14T14:11:22.976Z,12.70
2024-02-14T14:13:50.819Z,12.10
2024-02-14T14:16:18.642Z,13.00
2024-02-14T14:18:46.731Z,13.00
2024-02-14T14:21:14.659Z,12.90
2024-02-14T14:23:42.675Z,12.90
2024-02-14T14:26:10.545Z,13.10
2024-02-14T14:28:43.287Z,13.20
2024-02-14T14:31:12.927Z,13.20
2024-02-14T14:33:41.332Z,13.10
2024-02-14T14:36:09.954Z,13.40
2024-02-14T14:38:38.010Z,13.10
2024-02-14T14:41:06.303Z,13.00
2024-02-14T14:43:34.123Z,13.20
2024-02-14T14:46:03.321Z,13.50
2024-02-14T14:48:31.276Z,13.30
2024-02-14T14:50:59.256Z,12.90
2024-02-14T14:53:27.271Z,13.20
2024-02-14T14:55:57.379Z,12.90
2024-02-14T14:58:28.704Z,13.10
2024-02-14T15:00:59.876Z,12.80
2024-02-14T15:03:29.185Z,12.80
2024-02-14T15:05:58.478Z,12.80
2024-02-14T15:08:28.505Z,12.90
2024-02-14T15:10:57.238Z,13.00
2024-02-14T15:13:25.730Z,12.60
2024-02-14T15:15:54.292Z,12.60
2024-02-14T15:19:13.738Z,12.60
2024-02-14T15:21:42.889Z,12.70
2024-02-14T15:24:10.750Z,12.50
2024-02-14T15:26:50.384Z,12.10
2024-02-14T15:29:36.894Z,12.70
2024-02-14T15:32:22.466Z,12.50
2024-02-14T15:34:50.736Z,12.50
2024-02-14T15:37:20.015Z,12.70
2024-02-14T15:39:47.793Z,12.50
2024-02-14T15:42:15.762Z,12.30
2024-02-14T15:44:43.668Z,12.60
2024-02-14T15:47:11.651Z,12.50
2024-02-14T15:49:40.003Z,12.40
2024-02-14T15:52:08.216Z,12.50
2024-02-14T15:54:38.845Z,12.60
2024-02-14T15:57:07.034Z,12.70
2024-02-14T15:59:37.006Z,12.50
2024-02-14T16:02:05.210Z,12.70
2024-02-14T16:04:34.075Z,12.40
2024-02-14T16:07:01.923Z,12.30
2024-02-14T16:09:29.744Z,12.40
2024-02-14T16:11:59.055Z,12.40
2024-02-14T16:14:30.409Z,12.30
2024-02-14T16:16:58.885Z,12.50
2024-02-14T16:19:26.773Z,12.40
2024-02-14T16:22:02.252Z,12.40
2024-02-14T16:24:37.720Z,12.40
2024-02-14T16:27:08.136Z,12.20
2024-02-14T16:29:39.090Z,12.30
2024-02-14T16:32:08.365Z,12.30
2024-02-14T16:34:36.276Z,12.00
2024-02-14T16:37:04.543Z,12.10
2024-02-14T16:39:41.641Z,12.00
2024-02-14T16:42:13.642Z,11.90
2024-02-14T16:44:41.567Z,12.00
2024-02-14T16:47:09.636Z,12.00
2024-02-14T16:49:37.518Z,12.10
2024-02-14T16:52:06.271Z,11.90
2024-02-14T16:54:34.422Z,12.10
2024-02-14T16:57:09.931Z,12.10
2024-02-14T16:59:41.423Z,11.80
2024-02-14T17:02:09.551Z,12.00
2024-02-14T17:04:38.080Z,12.00
2024-02-14T17:07:06.904Z,12.20
2024-02-14T17:09:35.271Z,12.00
2024-02-14T17:12:03.270Z,12.00
2024-02-14T17:14:33.283Z,11.80
2024-02-14T17:17:03.384Z,12.00
2024-02-14T17:19:31.646Z,11.60
2024-02-14T17:21:59.546Z,12.00
2024-02-14T17:24:27.860Z,11.90
2024-02-14T17:26:55.927Z,11.90
2024-02-14T17:29:24.507Z,11.90
2024-02-14T17:31:54.837Z,11.90
2024-02-14T17:34:25.572Z,11.80
2024-02-14T17:36:53.579Z,11.90
2024-02-14T17:39:21.739Z,11.90
2024-02-14T17:41:49.668Z,12.00
2024-02-14T17:44:18.886Z,11.90
2024-02-14T17:46:47.701Z,12.00
2024-02-14T17:49:18.375Z,12.10
2024-02-14T17:51:49.365Z,12.00
2024-02-14T17:54:20.647Z,12.10
2024-02-14T17:56:51.535Z,12.00
2024-02-14T17:59:19.490Z,12.00
2024-02-14T18:01:48.463Z,12.00
2024-02-14T18:04:16.502Z,12.00
2024-02-14T18:06:45.508Z,11.50
2024-02-14T18:09:15.121Z,12.00
2024-02-14T18:11:43.269Z,12.10
2024-02-14T18:14:11.096Z,12.00
2024-02-14T18:16:39.204Z,11.70
2024-02-14T18:19:07.603Z,12.00
2024-02-14T18:21:35.684Z,12.10
2024-02-14T18:24:04.697Z,12.00
2024-02-14T18:26:34.068Z,12.10
2024-02-14T18:29:02.107Z,12.30
2024-02-14T18:31:29.923Z,12.10
2024-02-14T18:33:58.036Z,12.00
2024-02-14T18:36:25.978Z,12.30
2024-02-14T18:38:54.493Z,12.00
2024-02-14T18:41:25.551Z,12.10
2024-02-14T18:43:56.494Z,12.10
2024-02-14T18:46:24.906Z,12.00
2024-02-14T18:48:53.042Z,12.10
2024-02-14T18:51:21.640Z,11.90
2024-02-14T18:53:50.538Z,12.30
2024-02-14T18:56:18.897Z,12.10
2024-02-14T18:58:46.819Z,12.10
2024-02-14T19:01:23.022Z,11.90
2024-02-14T19:03:53.879Z,12.20
2024-02-14T19:06:22.138Z,12.20
2024-02-14T19:08:52.107Z,12.10
2024-02-14T19:11:20.523Z,12.10
2024-02-14T19:13:50.787Z,11.80
2024-02-14T19:16:28.108Z,12.00
2024-02-14T19:18:57.487Z,12.10
2024-02-14T19:21:25.653Z,12.00
2024-02-14T19:23:54.553Z,12.20
2024-02-14T19:26:22.893Z,11.90
2024-02-14T19:28:51.032Z,12.00
2024-02-14T19:31:19.442Z,12.10
2024-02-14T19:33:49.123Z,12.00
2024-02-14T19:36:17.504Z,11.90
2024-02-14T19:38:45.493Z,12.00
2024-02-14T19:41:13.316Z,11.90
2024-02-14T19:43:43.690Z,11.70
2024-02-14T19:46:12.081Z,11.90
2024-02-14T19:48:41.239Z,11.60
2024-02-14T19:51:10.836Z,11.90
2024-02-14T19:53:39.172Z,11.90
2024-02-14T19:56:07.753Z,11.90
2024-02-14T19:58:35.811Z,11.90
2024-02-14T20:01:04.033Z,11.80
2024-02-14T20:03:32.034Z,11.90
2024-02-14T20:06:00.258Z,11.80
2024-02-14T20:08:30.291Z,11.80
2024-02-14T20:10:58.405Z,11.90
2024-02-14T20:13:26.308Z,12.00
2024-02-14T20:15:54.386Z,12.00
2024-02-14T20:18:22.517Z,12.00
2024-02-14T20:20:50.582Z,12.00
2024-02-14T20:23:18.988Z,12.00
2024-02-14T20:25:48.206Z,12.00
2024-02-14T20:28:16.435Z,12.00
2024-02-14T20:30:44.425Z,11.90
2024-02-14T20:33:13.026Z,11.70
2024-02-14T20:35:41.099Z,11.80
2024-02-14T20:38:11.290Z,11.80
2024-02-14T20:40:39.349Z,11.70
2024-02-14T20:43:08.552Z,11.60
2024-02-14T20:45:36.943Z,11.70
2024-02-14T20:48:05.698Z,11.70
2024-02-14T20:50:33.557Z,11.70
2024-02-14T20:53:01.413Z,11.80
2024-02-14T20:55:31.728Z,11.80
2024-02-14T20:58:00.500Z,11.80
2024-02-14T21:00:30.092Z,11.70
2024-02-14T21:02:58.503Z,11.70
2024-02-14T21:05:26.915Z,11.90
2024-02-14T21:07:58.254Z,11.80
2024-02-14T21:10:28.664Z,11.60
2024-02-14T21:12:58.474Z,11.60
2024-02-14T21:15:30.582Z,11.70
2024-02-14T21:18:00.354Z,11.70
2024-02-14T21:20:28.562Z,11.70
2024-02-14T21:22:57.477Z,11.70
2024-02-14T21:25:27.530Z,11.80
2024-02-14T21:27:55.573Z,11.80
2024-02-14T21:30:26.175Z,11.80
2024-02-14T21:32:55.266Z,11.80
2024-02-14T21:35:25.129Z,11.80
2024-02-14T21:37:52.943Z,11.60
2024-02-14T21:40:20.858Z,11.80
2024-02-14T21:42:49.270Z,11.90
2024-02-14T21:45:18.581Z,11.80
2024-02-14T21:47:46.976Z,11.60
2024-02-14T21:50:16.349Z,11.70
2024-02-14T21:52:45.530Z,11.80
2024-02-14T21:55:13.427Z,11.60
2024-02-14T21:57:42.391Z,11.60
2024-02-14T22:00:13.228Z,11.60
2024-02-14T22:02:41.406Z,11.70
2024-02-14T22:05:09.584Z,11.20
2024-02-14T22:07:38.034Z,11.70
2024-02-14T22:10:08.493Z,11.80
2024-02-14T22:12:37.794Z,11.60
2024-02-14T22:15:06.625Z,11.80
2024-02-14T22:17:34.600Z,11.80
2024-02-14T22:20:02.703Z,11.80
2024-02-14T22:22:30.513Z,11.70
2024-02-14T22:24:58.328Z,11.50
2024-02-14T22:27:27.826Z,11.60
2024-02-14T22:29:55.634Z,11.60
2024-02-14T22:32:23.907Z,11.60
2024-02-14T22:34:51.906Z,11.80
2024-02-14T22:37:20.133Z,11.70
2024-02-14T22:39:47.898Z,11.80
2024-02-14T22:42:15.798Z,11.60
2024-02-14T22:44:45.466Z,11.80
2024-02-14T22:47:13.391Z,11.60
2024-02-14T22:49:41.322Z,11.70
2024-02-14T22:52:09.157Z,11.70
2024-02-14T22:54:36.948Z,11.50
2024-02-14T22:57:05.322Z,11.70
2024-02-14T22:59:33.311Z,11.60
2024-02-14T23:02:02.836Z,11.60
2024-02-14T23:04:34.377Z,11.70
2024-02-14T23:07:02.581Z,11.80
2024-02-14T23:09:30.550Z,11.90
2024-02-14T23:11:58.440Z,11.70
2024-02-14T23:14:26.214Z,12.00
2024-02-14T23:16:54.211Z,11.90
2024-02-14T23:19:23.840Z,11.90
2024-02-14T23:21:51.758Z,11.80
2024-02-14T23:24:19.615Z,11.80
2024-02-14T23:26:47.383Z,12.00
2024-02-14T23:29:17.463Z,12.00
2024-02-14T23:31:45.246Z,12.10
2024-02-14T23:34:13.294Z,11.80
2024-02-14T23:36:42.494Z,12.00
2024-02-14T23:39:10.493Z,11.80
2024-02-14T23:41:38.355Z,11.70
2024-02-14T23:44:06.304Z,11.50
2024-02-14T23:46:34.123Z,12.00
2024-02-14T23:49:03.246Z,12.00
2024-02-14T23:51:31.963Z,12.10
2024-02-14T23:54:01.233Z,12.00
2024-02-14T23:56:29.553Z,12.00
2024-02-14T23:58:57.338Z,12.00
